Fort Lauderdale Executive Airport Fort Lauderdale US
ICAO: KFXE
IATA: FXE
Category: Medium
Scheduled Services: No

Elevation: 13 ft
TransAlt. 18000 ft.

Airport Communications:
MIAMI APP/DEP:119.7
ATIS:119.85
CLNC DEL:127.95
EXECUTIVE GND:121.75
EXECUTIVE TWR:120.9
UNICOM:122.95

KFXE Zoom In..

If you have problems with the map follow the link
https://www.worldairports.se/pages/airport.php?
ICAO=KFXE

Runways:

(A) RW 08 length 6002 ft width 100 ft
ILS 111.10 / hdg 87

(B) RW 13 length 4000 ft width 100 ft
---- / hdg 132

(C) RW 26 length 6002 ft width 100 ft
---- / hdg 267

(D) RW 31 length 4000 ft width 100 ft
---- / hdg 312

Location; KFXE
Day. 18 / Time. 11.53 Zulu
* Altimeter: 30.29
* Temperature: 21° c. 69.8°f.
* Wind from: 100° Speed 20 kn.
Dewpoint: 13° c.
Visibility: 10 Statute Miles.
Clouds: Scattered 4200 ft.

KFXE 181153Z 10020KT 10SM SCT042 21/13 A3029 RMK AO2 PK WND 10026/1135 SLP258 70004 T02110128 10217 20211 53004


Wind From 100°
Speed 20 kn.

 
 
jpsmedia worldairports.se 2020   terms of use